Time;durP1;ratioP1;P1;durP2;ratioP2;P2;SDS_P1;SDS_P2;PMS_P1;PMS_P2;Temp;Humidity;BMP_temperature;BMP_pressure;BME280_temperature;BME280_humidity;BME280_pressure;Samples;Min_cycle;Max_cycle;Signal;HPM_P1;HPM_P2
2023/04/18 00:01:45;;;;;;;26.67;15.00;;;5.10;99.90;;;;;;5087622;28;20064;-48
2023/04/18 00:04:12;;;;;;;22.92;13.80;;;5.10;99.90;;;;;;5066582;28;20032;-45
2023/04/18 00:06:37;;;;;;;27.17;15.43;;;5.10;99.90;;;;;;5081674;28;20028;-49
2023/04/18 00:09:03;;;;;;;26.05;13.45;;;5.10;99.90;;;;;;5067066;28;20071;-53
2023/04/18 00:11:29;;;;;;;26.95;14.82;;;5.10;99.90;;;;;;5087813;28;20145;-49
2023/04/18 00:13:56;;;;;;;27.85;15.13;;;5.10;99.90;;;;;;5078005;28;20053;-53
2023/04/18 00:16:22;;;;;;;27.13;13.98;;;5.10;99.90;;;;;;5068676;28;20032;-51
2023/04/18 00:18:47;;;;;;;24.17;13.95;;;5.00;99.90;;;;;;5086061;28;20024;-50
2023/04/18 00:21:13;;;;;;;21.15;12.63;;;5.00;99.90;;;;;;5068753;28;20032;-51
2023/04/18 00:23:38;;;;;;;23.80;13.05;;;5.00;99.90;;;;;;5085767;28;20060;-50
2023/04/18 00:26:04;;;;;;;18.75;11.88;;;5.00;99.90;;;;;;5068776;28;20020;-49
2023/04/18 00:28:29;;;;;;;26.60;12.65;;;4.90;99.90;;;;;;5086201;28;20444;-52
2023/04/18 00:30:55;;;;;;;21.33;12.23;;;4.90;99.90;;;;;;5088584;28;20073;-48
2023/04/18 00:33:20;;;;;;;20.38;11.45;;;4.90;99.90;;;;;;5071760;28;20575;-46
2023/04/18 00:35:46;;;;;;;19.95;11.07;;;4.90;99.90;;;;;;5088881;28;20542;-48
2023/04/18 00:38:11;;;;;;;23.67;12.48;;;4.90;99.90;;;;;;5071817;28;20028;-46
2023/04/18 00:40:37;;;;;;;22.27;12.60;;;4.80;99.90;;;;;;5088511;28;20024;-51
2023/04/18 00:43:03;;;;;;;18.27;10.75;;;4.80;99.90;;;;;;5070580;28;20028;-48
2023/04/18 00:45:28;;;;;;;17.48;10.73;;;4.80;99.90;;;;;;5092163;28;20020;-50
2023/04/18 00:47:55;;;;;;;19.98;11.88;;;4.70;99.90;;;;;;5073225;28;20042;-48
2023/04/18 00:50:22;;;;;;;19.65;12.65;;;4.70;99.90;;;;;;5092107;28;20020;-50
2023/04/18 00:52:47;;;;;;;23.40;13.15;;;4.70;99.90;;;;;;5071938;28;20519;-51
2023/04/18 00:55:14;;;;;;;23.23;13.13;;;4.70;99.90;;;;;;5092132;28;20020;-48
2023/04/18 00:57:40;;;;;;;19.63;11.48;;;4.70;99.90;;;;;;5070722;28;20028;-53
2023/04/18 01:00:09;;;;;;;23.40;12.65;;;4.70;99.90;;;;;;5086269;28;20373;-49
2023/04/18 01:02:36;;;;;;;23.67;13.75;;;4.70;99.90;;;;;;5073870;28;20028;-53
2023/04/18 01:05:02;;;;;;;19.65;11.60;;;4.60;99.90;;;;;;5085912;28;20540;-51
2023/04/18 01:07:34;;;;;;;21.38;12.45;;;4.60;99.90;;;;;;5069130;28;20033;-54
2023/04/18 01:10:00;;;;;;;23.35;13.80;;;4.60;99.90;;;;;;5089955;28;20024;-52
2023/04/18 01:12:26;;;;;;;26.38;13.25;;;4.60;99.90;;;;;;5091937;28;20030;-48
2023/04/18 01:14:51;;;;;;;26.13;13.82;;;4.70;99.90;;;;;;5070582;28;20657;-51
2023/04/18 01:17:18;;;;;;;23.17;14.55;;;4.70;99.90;;;;;;5091165;28;20036;-50
2023/04/18 01:19:45;;;;;;;24.30;13.15;;;4.80;99.90;;;;;;5070371;28;20031;-53
2023/04/18 01:22:13;;;;;;;20.52;13.05;;;4.80;99.90;;;;;;5091355;28;20081;-52
2023/04/18 01:24:39;;;;;;;23.13;13.77;;;4.90;99.90;;;;;;5069919;28;20085;-49
2023/04/18 01:27:04;;;;;;;23.27;13.07;;;4.90;99.90;;;;;;5090948;28;20040;-49
2023/04/18 01:29:30;;;;;;;23.13;12.07;;;4.90;99.90;;;;;;5070151;28;20021;-48
2023/04/18 01:31:56;;;;;;;20.20;12.32;;;4.90;99.90;;;;;;5091000;28;20395;-48
2023/04/18 01:34:22;;;;;;;19.65;12.45;;;4.90;99.90;;;;;;5069907;28;20511;-47
2023/04/18 01:36:47;;;;;;;18.75;11.60;;;4.90;99.90;;;;;;5089540;28;20028;-52
2023/04/18 01:39:13;;;;;;;21.88;12.23;;;5.00;99.90;;;;;;5067437;28;20021;-52
2023/04/18 01:41:40;;;;;;;19.45;12.60;;;5.00;99.90;;;;;;5065198;28;20029;-51
2023/04/18 01:44:06;;;;;;;22.40;13.60;;;5.00;99.90;;;;;;5074787;28;20576;-49
2023/04/18 01:46:31;;;;;;;25.30;13.15;;;5.00;99.90;;;;;;5077347;28;20058;-47
2023/04/18 01:48:57;;;;;;;24.95;13.75;;;5.00;99.90;;;;;;5073256;28;20036;-52
2023/04/18 01:51:23;;;;;;;18.42;10.70;;;5.00;99.90;;;;;;5079920;28;20558;-49
2023/04/18 01:53:48;;;;;;;21.00;12.68;;;5.00;99.90;;;;;;5085111;28;20044;-48
2023/04/18 01:56:14;;;;;;;21.20;12.45;;;5.10;99.90;;;;;;5083542;28;20020;-52
2023/04/18 01:58:40;;;;;;;24.13;12.88;;;5.00;99.90;;;;;;5072253;28;20036;-50
2023/04/18 02:01:06;;;;;;;17.17;10.93;;;5.00;99.90;;;;;;5079506;28;20028;-49
2023/04/18 02:03:31;;;;;;;20.45;11.68;;;5.10;99.90;;;;;;5080309;28;20119;-57
2023/04/18 02:05:57;;;;;;;19.77;11.98;;;5.10;99.90;;;;;;5077460;28;20024;-45
2023/04/18 02:08:22;;;;;;;19.13;11.95;;;5.10;99.90;;;;;;5077061;28;20089;-47
2023/04/18 02:10:48;;;;;;;20.60;11.15;;;5.10;99.90;;;;;;5066203;28;20044;-46
2023/04/18 02:13:14;;;;;;;18.60;10.93;;;5.10;99.90;;;;;;5084901;28;20483;-49
2023/04/18 02:15:40;;;;;;;17.83;10.80;;;5.10;99.90;;;;;;5068593;28;20028;-47
2023/04/18 02:18:05;;;;;;;17.27;10.10;;;5.10;99.90;;;;;;5086953;28;20024;-47
2023/04/18 02:20:32;;;;;;;19.05;11.02;;;5.00;99.90;;;;;;5090550;28;20548;-49
2023/04/18 02:22:58;;;;;;;20.52;11.32;;;5.00;99.90;;;;;;5074698;28;20031;-49
2023/04/18 02:25:25;;;;;;;19.60;11.60;;;5.00;99.90;;;;;;5090331;28;20032;-46
2023/04/18 02:27:51;;;;;;;19.38;11.70;;;4.90;99.90;;;;;;5073450;28;20039;-45
2023/04/18 02:30:17;;;;;;;20.88;11.50;;;4.90;99.90;;;;;;5090332;28;20024;-46
2023/04/18 02:32:43;;;;;;;18.70;10.18;;;4.90;99.90;;;;;;5071008;28;20392;-45
2023/04/18 02:35:09;;;;;;;19.60;11.13;;;4.90;99.90;;;;;;5090166;28;20523;-47
2023/04/18 02:37:35;;;;;;;19.20;10.80;;;4.90;99.90;;;;;;5071084;28;21018;-44
2023/04/18 02:40:00;;;;;;;19.02;11.55;;;4.90;99.90;;;;;;5090171;28;20024;-44
2023/04/18 02:42:26;;;;;;;18.40;10.05;;;4.90;99.90;;;;;;5070113;28;20028;-47
2023/04/18 02:44:51;;;;;;;21.30;11.98;;;4.80;99.90;;;;;;5090093;28;20024;-47
2023/04/18 02:47:17;;;;;;;18.52;11.65;;;4.80;99.90;;;;;;5068337;28;20135;-44
2023/04/18 02:49:42;;;;;;;17.75;11.65;;;4.80;99.90;;;;;;5090153;28;20051;-44
2023/04/18 02:52:08;;;;;;;20.10;11.95;;;4.80;99.90;;;;;;5070020;28;20067;-44
2023/04/18 02:54:33;;;;;;;23.48;11.70;;;4.80;99.90;;;;;;5087114;28;20032;-45
2023/04/18 02:57:00;;;;;;;18.25;11.60;;;4.70;99.90;;;;;;5089874;28;20036;-46
2023/04/18 02:59:25;;;;;;;20.75;11.32;;;4.70;99.90;;;;;;5068141;28;20028;-47
2023/04/18 03:01:51;;;;;;;21.48;12.07;;;4.70;99.90;;;;;;5088942;28;20063;-47
2023/04/18 03:04:16;;;;;;;20.83;12.00;;;4.60;99.90;;;;;;5068187;28;20060;-48
2023/04/18 03:06:41;;;;;;;15.75;9.63;;;4.60;99.90;;;;;;5085813;28;20488;-47
2023/04/18 03:09:07;;;;;;;20.08;11.88;;;4.60;99.90;;;;;;5067925;28;20103;-46
2023/04/18 03:11:32;;;;;;;17.77;10.85;;;4.50;99.90;;;;;;5089038;28;20315;-47
2023/04/18 03:13:58;;;;;;;18.67;10.98;;;4.40;99.90;;;;;;5066743;28;20032;-48
2023/04/18 03:16:23;;;;;;;17.15;11.13;;;4.40;99.90;;;;;;5088989;28;20039;-48
2023/04/18 03:18:49;;;;;;;18.70;11.25;;;4.30;99.90;;;;;;5068199;28;20179;-46
2023/04/18 03:21:14;;;;;;;22.17;12.45;;;4.30;99.90;;;;;;5088600;28;20058;-44
2023/04/18 03:23:40;;;;;;;20.48;10.68;;;4.20;99.90;;;;;;5067847;28;20025;-45
2023/04/18 03:26:06;;;;;;;17.70;11.23;;;4.20;99.90;;;;;;5088487;28;20024;-44
2023/04/18 03:28:32;;;;;;;21.52;12.98;;;4.20;99.90;;;;;;5078135;28;20059;-45
2023/04/18 03:30:58;;;;;;;20.30;10.90;;;4.10;99.90;;;;;;5069400;28;20317;-45
2023/04/18 03:33:23;;;;;;;20.67;12.52;;;4.10;99.90;;;;;;5078037;28;20044;-46
2023/04/18 03:35:49;;;;;;;19.90;11.57;;;4.00;99.90;;;;;;5087922;28;20119;-45
2023/04/18 03:38:15;;;;;;;17.25;12.15;;;4.00;99.90;;;;;;5070484;28;20024;-48
2023/04/18 03:40:43;;;;;;;21.98;12.82;;;4.00;99.90;;;;;;5088529;28;20046;-44
2023/04/18 03:43:08;;;;;;;20.38;11.18;;;4.00;99.90;;;;;;5069212;28;20467;-50
2023/04/18 03:45:34;;;;;;;23.42;12.00;;;3.90;99.90;;;;;;5089345;28;20050;-47
2023/04/18 03:48:00;;;;;;;21.02;11.30;;;3.90;99.90;;;;;;5068669;28;20055;-45
2023/04/18 03:50:25;;;;;;;22.58;12.20;;;3.90;99.90;;;;;;5089151;28;20062;-45
2023/04/18 03:52:51;;;;;;;23.02;13.30;;;3.80;99.90;;;;;;5069154;28;20420;-47
2023/04/18 03:55:18;;;;;;;25.75;14.57;;;3.80;99.90;;;;;;5089303;28;20028;-46
2023/04/18 03:57:44;;;;;;;24.63;14.20;;;3.80;99.90;;;;;;5069434;28;20024;-49
2023/04/18 04:00:11;;;;;;;26.05;14.65;;;3.80;99.90;;;;;;5086525;28;20082;-46
2023/04/18 04:02:37;;;;;;;26.45;14.98;;;3.80;99.90;;;;;;5088982;28;20035;-47
2023/04/18 04:05:03;;;;;;;26.73;15.52;;;3.80;99.90;;;;;;5070672;28;20024;-44
2023/04/18 04:07:32;;;;;;;24.98;14.30;;;3.80;99.90;;;;;;5083677;28;20063;-45
2023/04/18 04:09:57;;;;;;;25.60;15.30;;;3.80;99.90;;;;;;5067275;28;20029;-48
2023/04/18 04:12:24;;;;;;;23.05;12.85;;;3.80;99.90;;;;;;5084045;28;20103;-48
2023/04/18 04:14:50;;;;;;;23.30;14.15;;;3.80;99.90;;;;;;5068028;28;20800;-45
2023/04/18 04:17:15;;;;;;;24.25;14.00;;;3.80;99.90;;;;;;5069281;28;20088;-43
2023/04/18 04:19:41;;;;;;;27.42;14.88;;;3.80;99.90;;;;;;5076987;28;20104;-44
2023/04/18 04:22:06;;;;;;;24.17;14.48;;;3.80;99.90;;;;;;5081793;28;20038;-46
2023/04/18 04:24:32;;;;;;;28.65;15.25;;;3.80;99.90;;;;;;5078959;28;20546;-49
2023/04/18 04:26:59;;;;;;;23.38;14.00;;;3.80;99.90;;;;;;5090536;28;20068;-47
2023/04/18 04:29:25;;;;;;;24.95;13.93;;;3.80;99.90;;;;;;5079656;28;20032;-47
2023/04/18 04:31:50;;;;;;;21.08;12.45;;;3.90;99.90;;;;;;5067308;28;20025;-47
2023/04/18 04:34:16;;;;;;;23.05;13.95;;;3.90;99.90;;;;;;5088572;28;20558;-45
2023/04/18 04:36:43;;;;;;;19.73;11.00;;;4.00;99.90;;;;;;5072495;28;20059;-47
2023/04/18 04:39:10;;;;;;;19.88;12.40;;;4.00;99.90;;;;;;5089870;28;20026;-46
2023/04/18 04:41:38;;;;;;;22.30;11.98;;;4.10;99.90;;;;;;5072506;28;20020;-49
2023/04/18 04:44:04;;;;;;;21.85;13.35;;;4.10;99.90;;;;;;5090080;28;20522;-46
2023/04/18 04:46:30;;;;;;;23.95;13.70;;;4.20;99.90;;;;;;5092226;28;20196;-48
2023/04/18 04:48:56;;;;;;;24.15;12.68;;;4.20;99.90;;;;;;5076841;28;20031;-48
2023/04/18 04:51:21;;;;;;;23.90;15.20;;;4.30;99.90;;;;;;5086346;28;20024;-48
2023/04/18 04:53:47;;;;;;;22.42;13.18;;;4.30;99.90;;;;;;5088064;28;20534;-46
2023/04/18 04:56:12;;;;;;;22.75;13.90;;;4.30;99.90;;;;;;5070915;28;20025;-46
2023/04/18 04:58:38;;;;;;;27.55;13.55;;;4.40;99.90;;;;;;5088988;28;20103;-46
2023/04/18 05:01:06;;;;;;;26.25;13.68;;;4.50;99.90;;;;;;5091947;28;20541;-46
2023/04/18 05:03:32;;;;;;;24.23;14.02;;;4.50;99.90;;;;;;5070337;28;20480;-45
2023/04/18 05:05:58;;;;;;;21.90;12.93;;;4.60;99.90;;;;;;5068677;28;20036;-47
2023/04/18 05:08:23;;;;;;;25.38;14.40;;;4.70;99.90;;;;;;5090923;28;20047;-47
2023/04/18 05:10:49;;;;;;;22.63;13.10;;;4.70;99.90;;;;;;5070286;28;20032;-46
2023/04/18 05:13:15;;;;;;;23.35;12.95;;;4.80;99.90;;;;;;5091045;28;20492;-48
2023/04/18 05:15:41;;;;;;;20.98;13.35;;;4.80;99.90;;;;;;5070181;28;20278;-45
2023/04/18 05:18:06;;;;;;;19.73;12.75;;;4.90;99.90;;;;;;5090849;28;20028;-52
2023/04/18 05:20:32;;;;;;;23.40;13.00;;;5.00;99.90;;;;;;5069987;28;20035;-49
2023/04/18 05:22:57;;;;;;;24.80;15.07;;;5.20;99.90;;;;;;5090602;28;20489;-45
2023/04/18 05:25:23;;;;;;;23.65;13.65;;;5.30;99.90;;;;;;5070112;28;20042;-48
2023/04/18 05:27:49;;;;;;;28.55;14.32;;;5.50;99.90;;;;;;5090516;28;20036;-49
2023/04/18 05:30:15;;;;;;;21.08;12.43;;;5.70;99.90;;;;;;5069407;28;20436;-47
2023/04/18 05:32:40;;;;;;;16.95;11.77;;;5.90;99.90;;;;;;5090563;28;20032;-50
2023/04/18 05:35:06;;;;;;;21.95;13.63;;;6.10;99.90;;;;;;5069526;28;20029;-45
2023/04/18 05:37:32;;;;;;;23.30;14.23;;;6.30;99.90;;;;;;5089098;28;20051;-48
2023/04/18 05:39:59;;;;;;;20.85;12.45;;;6.30;99.90;;;;;;5069381;28;20536;-47
2023/04/18 05:42:24;;;;;;;20.35;13.25;;;6.30;99.90;;;;;;5090279;28;20028;-45
2023/04/18 05:44:50;;;;;;;21.35;14.07;;;6.30;99.90;;;;;;5080193;28;20522;-48
2023/04/18 05:47:16;;;;;;;22.67;14.40;;;6.20;99.90;;;;;;5071432;28;20032;-51
2023/04/18 05:49:42;;;;;;;24.25;13.27;;;6.10;99.90;;;;;;5088452;28;20032;-53
2023/04/18 05:52:07;;;;;;;23.83;14.02;;;6.20;99.90;;;;;;5071282;28;20038;-46
2023/04/18 05:54:33;;;;;;;19.33;12.77;;;6.40;99.90;;;;;;5088224;28;20103;-46
2023/04/18 05:56:59;;;;;;;22.92;14.38;;;6.50;99.90;;;;;;5071193;28;20225;-49
2023/04/18 05:59:25;;;;;;;19.92;13.07;;;6.70;99.90;;;;;;5088191;28;20032;-47
2023/04/18 06:01:51;;;;;;;24.85;14.88;;;6.80;99.90;;;;;;5090735;28;20020;-49
2023/04/18 06:04:18;;;;;;;20.92;13.25;;;6.80;99.90;;;;;;5075203;28;20411;-48
2023/04/18 06:06:44;;;;;;;18.73;12.50;;;6.80;99.90;;;;;;5087601;28;20034;-46
2023/04/18 06:09:10;;;;;;;20.52;12.23;;;6.90;99.90;;;;;;5073987;28;20028;-46
2023/04/18 06:11:35;;;;;;;18.98;12.70;;;7.20;99.90;;;;;;5090510;28;20020;-47
2023/04/18 06:14:01;;;;;;;20.05;13.40;;;7.30;99.90;;;;;;5072930;28;20032;-48
2023/04/18 06:16:27;;;;;;;19.08;12.73;;;7.20;99.90;;;;;;5089180;28;20028;-46
2023/04/18 06:18:53;;;;;;;16.58;11.45;;;7.10;99.90;;;;;;5071731;28;20081;-47
2023/04/18 06:21:19;;;;;;;20.17;13.10;;;7.20;99.90;;;;;;5090363;28;20423;-51
2023/04/18 06:23:45;;;;;;;19.77;13.25;;;7.20;99.90;;;;;;5068963;28;20023;-45
2023/04/18 06:26:10;;;;;;;22.17;12.73;;;7.30;99.90;;;;;;5090193;28;20029;-49
2023/04/18 06:28:36;;;;;;;18.02;12.43;;;7.30;99.90;;;;;;5069084;28;20097;-47
2023/04/18 06:31:01;;;;;;;22.90;14.20;;;7.40;99.90;;;;;;5090166;28;20093;-49
2023/04/18 06:33:27;;;;;;;22.35;13.50;;;7.30;99.90;;;;;;5076005;28;20455;-50
2023/04/18 06:35:52;;;;;;;17.92;11.52;;;7.40;99.90;;;;;;5088417;28;20033;-49
2023/04/18 06:38:18;;;;;;;17.80;11.85;;;7.70;99.90;;;;;;5090083;28;20028;-46
2023/04/18 06:40:43;;;;;;;19.15;11.80;;;8.20;99.90;;;;;;5068389;28;20552;-46
2023/04/18 06:43:09;;;;;;;20.00;12.38;;;8.80;99.90;;;;;;5087414;28;20032;-50
2023/04/18 06:45:35;;;;;;;17.52;11.05;;;9.20;99.90;;;;;;5068228;28;20051;-45
2023/04/18 06:48:02;;;;;;;14.18;10.00;;;9.30;99.90;;;;;;5089320;28;20039;-47
2023/04/18 06:50:28;;;;;;;14.73;9.90;;;9.50;99.90;;;;;;5067853;28;20425;-47
2023/04/18 06:52:54;;;;;;;19.63;12.25;;;9.40;99.90;;;;;;5088964;28;20064;-47
2023/04/18 06:55:20;;;;;;;14.85;10.50;;;9.00;99.90;;;;;;5068000;28;20417;-48
2023/04/18 06:57:45;;;;;;;18.00;11.35;;;8.90;99.90;;;;;;5088780;28;20032;-46
2023/04/18 07:00:11;;;;;;;25.30;13.07;;;8.80;99.90;;;;;;5068010;28;20060;-45
2023/04/18 07:02:38;;;;;;;19.23;12.70;;;8.70;99.90;;;;;;5088885;28;20028;-46
2023/04/18 07:05:04;;;;;;;18.23;12.48;;;8.80;99.90;;;;;;5070265;28;20034;-47
2023/04/18 07:07:30;;;;;;;25.08;12.40;;;8.80;99.90;;;;;;5089170;28;20020;-46
2023/04/18 07:09:56;;;;;;;17.02;11.35;;;8.90;99.90;;;;;;5067755;28;20048;-45
2023/04/18 07:12:21;;;;;;;20.30;12.55;;;9.00;99.90;;;;;;5088572;28;20484;-48
2023/04/18 07:14:47;;;;;;;18.83;11.98;;;8.90;99.90;;;;;;5078066;28;20024;-49
2023/04/18 07:17:12;;;;;;;18.55;11.93;;;8.70;99.90;;;;;;5069481;28;20508;-45
2023/04/18 07:19:39;;;;;;;18.58;10.95;;;8.60;99.90;;;;;;5086571;28;20028;-50
2023/04/18 07:22:04;;;;;;;17.58;10.00;;;8.50;99.90;;;;;;5069249;28;20033;-50
2023/04/18 07:24:30;;;;;;;17.83;11.43;;;8.60;99.90;;;;;;5086561;28;20671;-44
2023/04/18 07:26:55;;;;;;;17.67;10.30;;;8.40;99.90;;;;;;5069260;28;20408;-46
2023/04/18 07:29:21;;;;;;;17.27;10.98;;;8.50;99.90;;;;;;5086275;28;20040;-48
2023/04/18 07:31:47;;;;;;;20.05;11.30;;;8.40;99.90;;;;;;5089029;28;20116;-45
2023/04/18 07:34:13;;;;;;;16.73;10.68;;;8.40;99.90;;;;;;5072605;28;20476;-48
2023/04/18 07:36:39;;;;;;;17.58;10.82;;;8.40;99.90;;;;;;5089025;28;20099;-44
2023/04/18 07:39:05;;;;;;;18.73;11.02;;;8.30;99.90;;;;;;5071569;28;20069;-46
2023/04/18 07:41:31;;;;;;;15.10;9.32;;;8.40;99.90;;;;;;5088782;28;20491;-48
2023/04/18 07:43:57;;;;;;;13.95;9.20;;;8.50;99.90;;;;;;5070473;28;20020;-48
2023/04/18 07:46:22;;;;;;;16.80;10.68;;;8.60;99.90;;;;;;5088849;28;20036;-45
2023/04/18 07:48:47;;;;;;;18.08;11.00;;;8.50;99.90;;;;;;5069148;28;20032;-48
2023/04/18 07:51:13;;;;;;;17.75;11.35;;;8.50;99.90;;;;;;5087338;28;20472;-45
2023/04/18 07:53:45;;;;;;;18.02;11.00;;;8.50;99.90;;;;;;5066955;28;20124;-48
2023/04/18 07:56:13;;;;;;;16.75;10.35;;;8.50;99.90;;;;;;5088563;28;20027;-45
2023/04/18 07:58:39;;;;;;;15.73;9.57;;;8.60;99.90;;;;;;5067567;28;20117;-45
2023/04/18 08:01:06;;;;;;;12.15;9.68;;;8.60;99.90;;;;;;5088496;28;20048;-47
2023/04/18 08:03:33;;;;;;;16.00;11.13;;;8.60;99.90;;;;;;5067416;28;20480;-46
2023/04/18 08:06:01;;;;;;;17.23;10.95;;;8.60;99.90;;;;;;5083012;28;20024;-46
2023/04/18 08:08:26;;;;;;;18.60;10.20;;;8.60;99.90;;;;;;5068303;28;20102;-53
2023/04/18 08:10:52;;;;;;;19.42;10.25;;;8.70;99.90;;;;;;5085922;28;20024;-49
2023/04/18 08:13:17;;;;;;;14.77;10.75;;;8.80;99.90;;;;;;5088249;28;20031;-46
2023/04/18 08:15:43;;;;;;;14.05;9.85;;;8.90;99.90;;;;;;5066993;28;20067;-47
2023/04/18 08:18:08;;;;;;;15.73;9.90;;;9.10;99.90;;;;;;5087755;28;20476;-46
2023/04/18 08:20:35;;;;;;;16.05;10.35;;;9.30;99.90;;;;;;5067037;28;20078;-51
2023/04/18 08:23:01;;;;;;;17.45;12.00;;;9.30;99.90;;;;;;5087940;28;20079;-46
2023/04/18 08:25:27;;;;;;;16.25;10.73;;;9.40;99.90;;;;;;5066805;28;20048;-48
2023/04/18 08:27:52;;;;;;;16.05;10.07;;;9.50;99.90;;;;;;5087755;28;20331;-48
2023/04/18 08:30:18;;;;;;;16.17;9.85;;;9.70;99.90;;;;;;5066936;28;20098;-49
2023/04/18 08:32:43;;;;;;;13.63;9.80;;;9.80;99.90;;;;;;5087500;28;20106;-49
2023/04/18 08:35:09;;;;;;;16.45;10.55;;;10.00;99.90;;;;;;5066172;28;20042;-49
2023/04/18 08:37:34;;;;;;;16.20;9.68;;;10.40;99.50;;;;;;5087397;28;20035;-46
2023/04/18 08:40:02;;;;;;;17.25;10.00;;;10.50;98.00;;;;;;5066763;28;20462;-48
2023/04/18 08:42:28;;;;;;;15.35;10.52;;;10.70;96.60;;;;;;5087846;28;20381;-47
2023/04/18 08:44:54;;;;;;;14.57;8.88;;;10.90;95.20;;;;;;5066704;28;20032;-51
2023/04/18 08:47:20;;;;;;;14.00;9.80;;;11.20;96.00;;;;;;5087302;28;20441;-52
2023/04/18 08:49:45;;;;;;;13.55;8.90;;;11.10;92.40;;;;;;5076605;28;20124;-48
2023/04/18 08:52:13;;;;;;;14.45;10.10;;;11.10;94.50;;;;;;5068397;28;20032;-47
2023/04/18 08:54:43;;;;;;;12.82;9.65;;;10.90;93.10;;;;;;5085738;28;20487;-47
2023/04/18 08:57:11;;;;;;;13.68;9.80;;;10.90;96.90;;;;;;5068285;28;20438;-47
2023/04/18 08:59:37;;;;;;;15.80;10.52;;;10.90;93.10;;;;;;5085961;28;20023;-52
2023/04/18 09:02:05;;;;;;;18.83;11.00;;;10.60;95.10;;;;;;5068204;28;20450;-49
2023/04/18 09:04:33;;;;;;;13.45;9.00;;;10.70;95.80;;;;;;5085162;28;20407;-49
2023/04/18 09:06:59;;;;;;;15.20;10.52;;;10.80;97.30;;;;;;5071493;28;20341;-48
2023/04/18 09:09:26;;;;;;;15.07;10.07;;;10.80;95.10;;;;;;5089499;28;20040;-50
2023/04/18 09:12:07;;;;;;;15.15;9.00;;;10.90;96.20;;;;;;5091981;28;20020;-50
2023/04/18 09:14:35;;;;;;;14.20;8.57;;;11.10;95.70;;;;;;5066407;28;20024;-50
2023/04/18 09:17:01;;;;;;;14.00;9.32;;;11.40;95.00;;;;;;5071786;28;20103;-48
2023/04/18 09:19:27;;;;;;;14.48;8.55;;;11.50;93.40;;;;;;5088800;28;20135;-47
2023/04/18 09:21:58;;;;;;;14.88;9.73;;;11.60;93.10;;;;;;5091508;28;20012;-50
2023/04/18 09:24:25;;;;;;;16.00;10.13;;;11.50;93.20;;;;;;5063719;28;20107;-51
2023/04/18 09:26:55;;;;;;;13.80;8.90;;;11.70;93.10;;;;;;5091215;28;20020;-48
2023/04/18 09:29:48;;;;;;;15.05;8.43;;;11.80;91.50;;;;;;5075784;28;20036;-50
2023/04/18 09:32:28;;;;;;;12.20;8.10;;;12.10;91.30;;;;;;5082401;28;20063;-50
2023/04/18 09:35:00;;;;;;;16.90;9.35;;;12.40;90.70;;;;;;5069578;28;20047;-48
2023/04/18 09:37:27;;;;;;;12.10;8.40;;;12.30;90.00;;;;;;5050989;28;20033;-47
2023/04/18 09:39:53;;;;;;;11.75;7.70;;;12.60;91.00;;;;;;5088292;28;20039;-46
2023/04/18 09:42:19;;;;;;;10.65;7.40;;;12.70;84.50;;;;;;5071284;28;20047;-50
2023/04/18 09:44:58;;;;;;;11.82;7.85;;;12.90;90.60;;;;;;5088527;28;20024;-50
2023/04/18 09:47:25;;;;;;;10.13;7.18;;;13.10;87.30;;;;;;5050722;28;20021;-51
2023/04/18 09:49:51;;;;;;;15.95;9.75;;;13.20;81.80;;;;;;5088118;28;20024;-50
2023/04/18 09:52:18;;;;;;;11.95;8.90;;;13.00;80.10;;;;;;5071078;28;20048;-52
2023/04/18 09:54:46;;;;;;;14.30;9.20;;;12.90;86.10;;;;;;5088510;28;20542;-51
2023/04/18 09:57:12;;;;;;;17.05;10.10;;;12.80;80.60;;;;;;5072990;28;20044;-49
2023/04/18 09:59:46;;;;;;;15.75;9.32;;;12.50;82.90;;;;;;5090911;28;20024;-53
2023/04/18 10:02:17;;;;;;;15.27;9.90;;;12.70;86.50;;;;;;5067291;28;20040;-50
2023/04/18 10:04:45;;;;;;;12.88;9.18;;;12.70;84.10;;;;;;5068371;28;20032;-50
2023/04/18 10:07:12;;;;;;;14.98;9.82;;;12.90;85.20;;;;;;5068409;28;20035;-47
2023/04/18 10:09:41;;;;;;;13.88;7.57;;;12.80;83.60;;;;;;5072524;28;20515;-49
2023/04/18 10:12:07;;;;;;;11.10;7.93;;;13.00;88.60;;;;;;5067910;28;20408;-51
2023/04/18 10:14:35;;;;;;;10.52;7.53;;;13.30;88.90;;;;;;5085511;28;20111;-53
2023/04/18 10:17:01;;;;;;;9.45;7.25;;;13.50;81.00;;;;;;5087201;28;20038;-49
2023/04/18 10:19:28;;;;;;;12.02;7.85;;;13.60;82.40;;;;;;5066583;28;20388;-48
2023/04/18 10:21:55;;;;;;;10.15;6.85;;;13.70;82.20;;;;;;5070922;28;20421;-48
2023/04/18 10:24:52;;;;;;;13.55;8.27;;;13.80;79.00;;;;;;5071177;28;20500;-50
2023/04/18 10:27:38;;;;;;;10.23;7.75;;;13.90;77.50;;;;;;5080396;28;20143;-49
2023/04/18 10:30:03;;;;;;;15.23;8.18;;;14.00;79.60;;;;;;5061039;28;20078;-52
2023/04/18 10:32:29;;;;;;;10.77;8.02;;;14.20;74.00;;;;;;5087363;28;20123;-47
2023/04/18 10:34:55;;;;;;;13.35;8.68;;;14.20;78.00;;;;;;5080443;28;20040;-48
2023/04/18 10:37:20;;;;;;;10.82;7.15;;;14.30;78.50;;;;;;5086667;28;20051;-48
2023/04/18 10:39:56;;;;;;;10.80;8.43;;;14.50;76.20;;;;;;5066321;28;20489;-50
2023/04/18 10:42:46;;;;;;;10.77;7.50;;;14.30;69.60;;;;;;5047592;28;20040;-47
2023/04/18 10:45:21;;;;;;;10.20;7.97;;;14.40;72.50;;;;;;5047532;28;20029;-49
2023/04/18 10:47:47;;;;;;;11.50;8.00;;;14.30;70.10;;;;;;5070668;28;20071;-51
2023/04/18 10:50:13;;;;;;;13.27;7.95;;;14.30;75.60;;;;;;5087353;28;20104;-49
2023/04/18 10:52:39;;;;;;;12.70;7.68;;;14.30;72.50;;;;;;5066207;28;20087;-49
2023/04/18 10:55:08;;;;;;;9.77;7.22;;;14.30;76.00;;;;;;5071663;28;20028;-48
2023/04/18 10:57:45;;;;;;;19.25;9.32;;;14.40;72.50;;;;;;5072788;28;20035;-50
2023/04/18 11:00:13;;;;;;;10.52;8.10;;;14.20;71.30;;;;;;5067181;28;20032;-51
2023/04/18 11:02:46;;;;;;;11.98;7.25;;;14.10;77.40;;;;;;5069630;28;20035;-49
2023/04/18 11:05:18;;;;;;;11.18;8.10;;;14.50;78.60;;;;;;5077165;28;20032;-48
2023/04/18 11:07:45;;;;;;;14.70;8.27;;;14.40;70.60;;;;;;5065776;28;20027;-51
2023/04/18 11:10:11;;;;;;;12.18;9.25;;;14.00;76.20;;;;;;5087373;28;20021;-50
2023/04/18 11:12:39;;;;;;;11.48;8.43;;;13.90;74.10;;;;;;5065213;28;20063;-45
2023/04/18 11:15:14;;;;;;;12.77;8.95;;;13.70;77.20;;;;;;5087041;28;20028;-52
2023/04/18 11:17:40;;;;;;;10.23;7.85;;;13.70;79.10;;;;;;5065529;28;20724;-50
2023/04/18 11:20:07;;;;;;;13.07;9.07;;;13.90;79.10;;;;;;5074729;28;20029;-50
2023/04/18 11:22:56;;;;;;;11.20;8.88;;;14.00;74.20;;;;;;5074858;28;20059;-47
2023/04/18 11:25:31;;;;;;;15.07;10.05;;;13.80;76.00;;;;;;5055542;28;20032;-47
2023/04/18 11:28:02;;;;;;;16.20;10.07;;;13.60;78.10;;;;;;5057261;28;20098;-53
2023/04/18 11:30:35;;;;;;;12.43;9.55;;;13.40;79.60;;;;;;5066653;28;20055;-50
2023/04/18 11:33:07;;;;;;;10.95;9.27;;;13.60;81.00;;;;;;5083567;28;20036;-48
2023/04/18 11:35:39;;;;;;;14.90;10.73;;;13.80;79.10;;;;;;5086740;28;20107;-52
2023/04/18 11:38:06;;;;;;;14.63;10.00;;;13.70;78.80;;;;;;5060388;28;20027;-48
2023/04/18 11:40:32;;;;;;;15.07;8.32;;;13.80;80.00;;;;;;5086457;28;20047;-51
2023/04/18 11:43:05;;;;;;;16.08;10.07;;;14.20;80.00;;;;;;5073871;28;20742;-49
2023/04/18 11:45:31;;;;;;;16.67;10.80;;;14.30;73.50;;;;;;5072428;28;20024;-47
2023/04/18 11:47:58;;;;;;;12.48;9.63;;;14.20;75.30;;;;;;5072378;28;20048;-49
2023/04/18 11:50:25;;;;;;;16.25;9.88;;;14.30;74.80;;;;;;5066255;28;20063;-51
2023/04/18 11:52:52;;;;;;;15.70;9.25;;;14.30;74.60;;;;;;5064988;28;20024;-52
2023/04/18 11:55:23;;;;;;;13.93;8.50;;;14.20;76.40;;;;;;5075848;28;20478;-48
2023/04/18 11:57:52;;;;;;;14.15;9.25;;;14.40;74.40;;;;;;5068904;28;20028;-48
2023/04/18 12:00:29;;;;;;;11.73;9.45;;;14.30;75.90;;;;;;5087238;28;20080;-50
2023/04/18 12:02:54;;;;;;;14.13;9.40;;;14.40;75.00;;;;;;5071872;28;20016;-51
2023/04/18 12:05:28;;;;;;;13.60;7.88;;;14.30;72.50;;;;;;5073505;28;20025;-49
2023/04/18 12:07:54;;;;;;;12.43;9.10;;;14.30;74.20;;;;;;5071014;28;20540;-52
2023/04/18 12:10:28;;;;;;;16.52;8.98;;;14.10;75.50;;;;;;5087285;28;20058;-51
2023/04/18 12:12:58;;;;;;;13.68;8.07;;;14.20;74.70;;;;;;5065766;28;20024;-51
2023/04/18 12:15:28;;;;;;;13.32;7.90;;;14.40;75.40;;;;;;5078626;28;20056;-50
2023/04/18 12:18:02;;;;;;;12.60;8.80;;;14.50;76.00;;;;;;5085113;28;20023;-49
2023/04/18 12:20:45;;;;;;;10.50;8.35;;;14.60;72.70;;;;;;5086947;28;20016;-50
2023/04/18 12:23:37;;;;;;;14.93;9.02;;;14.60;72.00;;;;;;5076073;28;20030;-52
2023/04/18 12:26:17;;;;;;;13.38;9.65;;;14.50;71.80;;;;;;5087169;28;20028;-47
2023/04/18 12:28:44;;;;;;;13.98;9.23;;;14.20;72.90;;;;;;5084916;28;20141;-53
2023/04/18 12:31:10;;;;;;;14.20;9.75;;;14.20;74.20;;;;;;5078851;28;20029;-50
2023/04/18 12:33:35;;;;;;;14.10;9.15;;;14.20;75.10;;;;;;5073685;28;20101;-52
2023/04/18 12:36:02;;;;;;;15.77;9.18;;;14.20;76.20;;;;;;5085507;28;20040;-50